createdAt,value
2022-12-27T00:01:21.007Z,95.88
2022-12-27T00:03:52.213Z,96.93
2022-12-27T00:06:26.915Z,97.40
2022-12-27T00:08:58.689Z,97.28
2022-12-27T00:11:31.935Z,96.76
2022-12-27T00:14:09.151Z,97.18
2022-12-27T00:16:40.002Z,97.43
2022-12-27T00:19:10.578Z,97.83
2022-12-27T00:21:40.970Z,96.12
2022-12-27T00:24:11.593Z,97.41
2022-12-27T00:26:42.163Z,96.75
2022-12-27T00:29:15.279Z,96.96
2022-12-27T00:31:46.039Z,93.70
2022-12-27T00:34:16.499Z,92.97
2022-12-27T00:36:46.989Z,92.13
2022-12-27T00:39:17.971Z,90.93
2022-12-27T00:41:49.314Z,91.59
2022-12-27T00:44:22.509Z,91.30
2022-12-27T00:46:52.803Z,93.02
2022-12-27T00:49:24.249Z,92.96
2022-12-27T00:51:54.595Z,92.94
2022-12-27T00:54:24.984Z,90.91
2022-12-27T00:56:55.302Z,89.13
2022-12-27T00:59:28.897Z,88.57
2022-12-27T01:01:59.330Z,88.09
2022-12-27T01:04:29.818Z,88.87
2022-12-27T01:07:00.211Z,88.93
2022-12-27T01:09:30.773Z,87.87
2022-12-27T01:12:01.350Z,88.15
2022-12-27T01:14:34.355Z,88.51
2022-12-27T01:17:04.685Z,87.92
2022-12-27T01:19:35.436Z,87.11
2022-12-27T01:22:06.289Z,87.45
2022-12-27T01:24:37.388Z,88.01
2022-12-27T01:27:07.930Z,87.08
2022-12-27T01:29:40.934Z,81.99
2022-12-27T01:32:11.819Z,77.72
2022-12-27T01:34:42.386Z,76.57
2022-12-27T01:37:12.956Z,76.48
2022-12-27T01:39:43.377Z,75.19
2022-12-27T01:42:31.864Z,74.76
2022-12-27T01:45:05.407Z,75.69
2022-12-27T01:47:48.432Z,75.61
2022-12-27T01:50:29.459Z,73.31
2022-12-27T01:53:07.362Z,73.49
2022-12-27T01:55:45.073Z,72.44
2022-12-27T01:58:22.209Z,73.38
2022-12-27T02:00:55.896Z,74.34
2022-12-27T02:03:31.228Z,73.35
2022-12-27T02:06:04.893Z,72.97
2022-12-27T02:08:47.090Z,73.48
2022-12-27T02:11:18.121Z,73.98
2022-12-27T02:13:49.809Z,74.40
2022-12-27T02:16:23.215Z,74.75
2022-12-27T02:18:53.574Z,74.76
2022-12-27T02:21:59.537Z,75.25
2022-12-27T02:24:50.527Z,75.84
2022-12-27T02:27:44.058Z,76.35
2022-12-27T02:30:17.080Z,75.82
2022-12-27T02:32:55.624Z,76.17
2022-12-27T02:35:50.459Z,75.61
2022-12-27T02:38:24.829Z,75.91
2022-12-27T02:41:09.095Z,76.85
2022-12-27T02:43:51.775Z,78.04
2022-12-27T02:46:41.287Z,77.48
2022-12-27T02:49:40.882Z,77.91
2022-12-27T02:52:38.462Z,78.23
2022-12-27T02:55:31.499Z,78.65
2022-12-27T02:58:26.800Z,79.01
2022-12-27T03:01:24.475Z,78.73
2022-12-27T03:04:18.266Z,77.83
2022-12-27T03:07:07.613Z,77.77
2022-12-27T03:10:00.620Z,77.94
2022-12-27T03:12:59.979Z,78.34
2022-12-27T03:16:00.135Z,79.50
2022-12-27T03:18:47.834Z,80.80
2022-12-27T03:21:39.531Z,81.10
2022-12-27T03:24:23.769Z,81.63
2022-12-27T03:26:55.755Z,82.33
2022-12-27T03:29:44.854Z,82.10
2022-12-27T03:32:30.004Z,82.64
2022-12-27T03:35:09.388Z,82.47
2022-12-27T03:38:00.310Z,83.45
2022-12-27T03:40:39.327Z,83.04
2022-12-27T03:43:13.803Z,82.29
2022-12-27T03:46:11.380Z,82.91
2022-12-27T03:48:56.979Z,83.32
2022-12-27T03:51:30.732Z,82.68
2022-12-27T03:54:11.487Z,82.52
2022-12-27T03:56:43.414Z,83.34
2022-12-27T03:59:15.524Z,83.25
2022-12-27T04:01:45.929Z,83.38
2022-12-27T04:04:16.319Z,83.29
2022-12-27T04:06:46.628Z,83.26
2022-12-27T04:09:32.183Z,83.13
2022-12-27T04:12:14.967Z,83.23
2022-12-27T04:14:58.249Z,83.88
2022-12-27T04:17:40.969Z,84.22
2022-12-27T04:20:24.799Z,83.85
2022-12-27T04:23:07.490Z,83.52
2022-12-27T04:25:52.819Z,83.80
2022-12-27T04:28:35.529Z,83.74
2022-12-27T04:31:18.266Z,83.40
2022-12-27T04:34:00.905Z,82.70
2022-12-27T04:36:31.179Z,82.97
2022-12-27T04:39:01.500Z,83.27
2022-12-27T04:41:47.679Z,82.89
2022-12-27T04:44:30.446Z,81.75
2022-12-27T04:47:13.223Z,81.11
2022-12-27T04:49:56.078Z,80.47
2022-12-27T04:52:40.594Z,80.16
2022-12-27T04:55:22.330Z,80.45
2022-12-27T04:57:56.118Z,80.06
2022-12-27T05:00:42.004Z,79.98
2022-12-27T05:03:16.606Z,80.06
2022-12-27T05:05:48.277Z,79.82
2022-12-27T05:08:31.649Z,79.02
2022-12-27T05:11:14.736Z,78.51
2022-12-27T05:14:02.757Z,78.33
2022-12-27T05:16:35.452Z,76.94
2022-12-27T05:19:07.079Z,77.35
2022-12-27T05:21:39.587Z,76.81
2022-12-27T05:24:23.113Z,77.07
2022-12-27T05:26:53.454Z,77.38
2022-12-27T05:29:26.390Z,77.25
2022-12-27T05:31:56.661Z,77.04
2022-12-27T05:34:26.946Z,77.50
2022-12-27T05:36:57.224Z,77.37
2022-12-27T05:39:27.658Z,77.66
2022-12-27T05:41:57.996Z,77.52
2022-12-27T05:44:31.075Z,77.94
2022-12-27T05:47:01.467Z,77.91
2022-12-27T05:49:31.921Z,78.74
2022-12-27T05:52:02.297Z,78.32
2022-12-27T05:54:32.569Z,78.52
2022-12-27T05:57:02.923Z,78.96
2022-12-27T05:59:35.836Z,79.55
2022-12-27T06:02:06.405Z,79.51
2022-12-27T06:04:36.991Z,80.42
2022-12-27T06:07:07.324Z,80.32
2022-12-27T06:09:37.629Z,80.55
2022-12-27T06:12:08.745Z,80.48
2022-12-27T06:14:41.817Z,80.68
2022-12-27T06:17:12.111Z,80.79
2022-12-27T06:19:42.525Z,80.79
2022-12-27T06:22:12.792Z,80.73
2022-12-27T06:24:43.126Z,80.77
2022-12-27T06:27:13.501Z,81.00
2022-12-27T06:29:46.458Z,81.05
2022-12-27T06:32:17.891Z,82.31
2022-12-27T06:34:48.776Z,82.30
2022-12-27T06:37:19.210Z,82.29
2022-12-27T06:39:49.574Z,82.45
2022-12-27T06:42:19.931Z,82.53
2022-12-27T06:44:52.846Z,83.29
2022-12-27T06:47:23.243Z,83.38
2022-12-27T06:49:53.641Z,83.50
2022-12-27T06:52:24.086Z,84.00
2022-12-27T06:54:54.467Z,84.28
2022-12-27T06:57:24.828Z,84.32
2022-12-27T06:59:58.417Z,84.07
2022-12-27T07:02:28.806Z,83.85
2022-12-27T07:04:59.194Z,84.09
2022-12-27T07:07:29.514Z,83.90
2022-12-27T07:09:59.797Z,83.29
2022-12-27T07:12:36.273Z,83.46
2022-12-27T07:15:11.859Z,83.67
2022-12-27T07:17:42.209Z,84.50
2022-12-27T07:20:14.281Z,85.04
2022-12-27T07:22:44.642Z,85.14
2022-12-27T07:25:15.014Z,85.32
2022-12-27T07:27:45.286Z,84.83
2022-12-27T07:30:18.341Z,84.92
2022-12-27T07:32:48.746Z,85.32
2022-12-27T07:35:19.181Z,85.07
2022-12-27T07:37:49.463Z,85.29
2022-12-27T07:40:19.983Z,85.42
2022-12-27T07:42:50.353Z,85.46
2022-12-27T07:45:23.991Z,85.19
2022-12-27T07:47:54.286Z,84.81
2022-12-27T07:50:24.605Z,84.57
2022-12-27T07:52:54.949Z,84.67
2022-12-27T07:55:25.265Z,84.71
2022-12-27T07:57:55.608Z,84.10
2022-12-27T08:00:30.189Z,83.55
2022-12-27T08:03:00.577Z,83.18
2022-12-27T08:05:30.887Z,82.69
2022-12-27T08:08:03.632Z,82.12
2022-12-27T08:10:36.211Z,82.72
2022-12-27T08:13:06.529Z,81.94
2022-12-27T08:15:40.660Z,80.55
2022-12-27T08:18:11.119Z,80.42
2022-12-27T08:20:41.438Z,79.03
2022-12-27T08:23:11.712Z,80.04
2022-12-27T08:25:48.451Z,80.40
2022-12-27T08:28:21.363Z,80.40
2022-12-27T08:30:54.294Z,79.06
2022-12-27T08:33:24.676Z,78.88
2022-12-27T08:35:57.331Z,79.32
2022-12-27T08:38:28.197Z,79.90
2022-12-27T08:40:58.571Z,80.15
2022-12-27T08:43:29.935Z,79.52
2022-12-27T08:46:08.695Z,77.58
2022-12-27T08:48:39.183Z,77.64
2022-12-27T08:51:14.595Z,78.38
2022-12-27T08:53:45.913Z,78.74
2022-12-27T08:56:16.233Z,78.78
2022-12-27T08:58:46.615Z,79.29
2022-12-27T09:01:20.395Z,79.71
2022-12-27T09:03:50.787Z,79.81
2022-12-27T09:06:23.485Z,79.63
2022-12-27T09:08:56.133Z,79.40
2022-12-27T09:11:29.837Z,79.16
2022-12-27T09:14:03.068Z,79.00
2022-12-27T09:16:37.020Z,78.13
2022-12-27T09:19:07.961Z,78.90
2022-12-27T09:21:38.403Z,79.13
2022-12-27T09:24:09.656Z,79.56
2022-12-27T09:26:39.753Z,79.65
2022-12-27T09:29:10.349Z,79.25
2022-12-27T09:31:43.306Z,79.48
2022-12-27T09:34:13.933Z,78.87
2022-12-27T09:36:45.121Z,74.71
2022-12-27T09:39:17.245Z,72.90
2022-12-27T09:44:53.824Z,69.31
2022-12-27T09:47:34.284Z,68.65
2022-12-27T09:50:09.761Z,69.82
2022-12-27T09:52:44.921Z,71.99
2022-12-27T09:55:22.602Z,72.15
2022-12-27T09:58:00.285Z,71.74
2022-12-27T10:00:35.349Z,71.84
2022-12-27T10:03:10.508Z,72.82
2022-12-27T10:05:42.419Z,72.89
2022-12-27T10:08:37.717Z,71.75
2022-12-27T10:11:36.251Z,72.16
2022-12-27T10:14:20.983Z,70.01
2022-12-27T10:17:01.981Z,67.08
2022-12-27T10:19:46.680Z,64.81
2022-12-27T10:22:27.110Z,63.25
2022-12-27T10:25:02.353Z,65.33
2022-12-27T10:27:35.087Z,66.97
2022-12-27T10:30:07.030Z,66.16
2022-12-27T10:32:37.299Z,66.72
2022-12-27T10:35:14.731Z,68.63
2022-12-27T10:37:45.301Z,69.50
2022-12-27T10:40:23.114Z,68.31
2022-12-27T10:43:06.197Z,65.55
2022-12-27T10:45:40.245Z,64.18
2022-12-27T10:48:22.120Z,64.38
2022-12-27T10:50:59.879Z,64.07
2022-12-27T10:53:37.225Z,63.93
2022-12-27T10:56:13.628Z,64.02
2022-12-27T10:58:51.572Z,65.06
2022-12-27T11:01:27.244Z,67.08
2022-12-27T11:04:21.782Z,67.95
2022-12-27T11:07:18.822Z,65.33
2022-12-27T11:09:51.897Z,65.48
2022-12-27T11:12:25.023Z,66.46
2022-12-27T11:15:02.251Z,65.21
2022-12-27T11:17:41.458Z,65.80
2022-12-27T11:20:24.727Z,66.24
2022-12-27T11:23:01.593Z,64.13
2022-12-27T11:25:33.710Z,63.36
2022-12-27T11:28:07.236Z,61.80
2022-12-27T11:30:42.016Z,58.69
2022-12-27T11:33:25.159Z,54.87
2022-12-27T11:35:59.935Z,52.58
2022-12-27T11:38:36.898Z,49.89
2022-12-27T11:41:12.192Z,48.30
2022-12-27T11:43:50.837Z,47.03
2022-12-27T11:46:30.437Z,45.53
2022-12-27T11:49:01.887Z,44.34
2022-12-27T11:52:01.946Z,43.24
2022-12-27T11:54:52.492Z,42.40
2022-12-27T11:57:38.495Z,42.66
2022-12-27T12:00:18.890Z,43.14
2022-12-27T12:03:33.848Z,44.88
2022-12-27T12:06:19.032Z,46.46
2022-12-27T12:09:12.141Z,49.06
2022-12-27T12:12:05.868Z,52.09
2022-12-27T12:15:21.886Z,54.12
2022-12-27T12:18:46.473Z,56.41
2022-12-27T12:21:28.738Z,58.76
2022-12-27T12:24:35.937Z,58.36
2022-12-27T12:27:33.276Z,56.61
2022-12-27T12:30:40.427Z,56.29
2022-12-27T12:33:58.153Z,53.97
2022-12-27T12:37:11.479Z,52.57
2022-12-27T12:40:04.261Z,51.82
2022-12-27T12:42:47.357Z,52.31
2022-12-27T12:45:37.054Z,47.36
2022-12-27T12:48:38.264Z,43.44
2022-12-27T12:51:32.745Z,41.02
2022-12-27T12:54:19.838Z,39.10
2022-12-27T12:57:15.232Z,37.93
2022-12-27T13:00:18.050Z,39.75
2022-12-27T13:03:29.249Z,39.15
2022-12-27T13:06:11.374Z,38.19
2022-12-27T13:08:50.000Z,39.04
2022-12-27T13:11:35.601Z,38.99
2022-12-27T13:14:27.950Z,38.05
2022-12-27T13:17:11.304Z,38.83
2022-12-27T13:20:08.195Z,39.95
2022-12-27T13:22:55.015Z,41.31
2022-12-27T13:25:40.476Z,43.16
2022-12-27T13:28:35.186Z,44.95
2022-12-27T13:31:15.201Z,47.32
2022-12-27T13:34:01.639Z,50.99
2022-12-27T13:36:42.806Z,51.73
2022-12-27T13:39:34.779Z,53.39
2022-12-27T13:42:52.981Z,54.12
2022-12-27T13:45:46.501Z,56.13
2022-12-27T13:48:51.055Z,57.54
2022-12-27T13:51:44.250Z,58.98
2022-12-27T13:55:15.942Z,60.61
2022-12-27T13:58:36.156Z,61.49
2022-12-27T14:01:35.013Z,61.40
2022-12-27T14:04:26.470Z,60.68
2022-12-27T14:07:18.836Z,60.88
2022-12-27T14:10:12.163Z,60.46
2022-12-27T14:13:01.318Z,59.31
2022-12-27T14:15:53.577Z,58.20
2022-12-27T14:18:50.765Z,59.52
2022-12-27T14:21:48.297Z,60.73
2022-12-27T14:24:51.299Z,60.67
2022-12-27T14:28:24.361Z,61.46
2022-12-27T14:31:45.401Z,61.22
2022-12-27T14:34:59.858Z,62.78
2022-12-27T14:38:01.283Z,63.93
2022-12-27T14:41:14.898Z,65.40
2022-12-27T14:44:34.571Z,66.55
2022-12-27T14:47:55.411Z,67.22
2022-12-27T14:51:49.929Z,68.05
2022-12-27T14:54:56.824Z,68.48
2022-12-27T14:57:38.974Z,68.92
2022-12-27T15:00:19.753Z,69.24
2022-12-27T15:03:13.361Z,69.37
2022-12-27T15:06:04.230Z,69.39
2022-12-27T15:09:05.359Z,69.30
2022-12-27T15:12:08.813Z,69.40
2022-12-27T15:15:35.398Z,70.84
2022-12-27T15:18:23.998Z,71.69
2022-12-27T15:21:15.739Z,72.38
2022-12-27T15:23:55.241Z,72.59
2022-12-27T15:26:35.744Z,72.68
2022-12-27T15:29:34.387Z,73.13
2022-12-27T15:32:19.930Z,73.82
2022-12-27T15:35:09.934Z,73.76
2022-12-27T15:38:09.639Z,74.85
2022-12-27T15:41:08.014Z,75.34
2022-12-27T15:43:58.090Z,76.14
2022-12-27T15:47:17.212Z,76.51
2022-12-27T15:50:10.194Z,76.94
2022-12-27T15:53:01.507Z,76.96
2022-12-27T15:56:01.814Z,77.34
2022-12-27T15:58:33.034Z,77.85
2022-12-27T16:01:29.575Z,78.60
2022-12-27T16:04:44.734Z,78.73
2022-12-27T16:07:53.837Z,79.25
2022-12-27T16:10:52.961Z,79.09
2022-12-27T16:13:51.777Z,79.31
2022-12-27T16:17:00.451Z,79.73
2022-12-27T16:20:03.315Z,80.11
2022-12-27T16:22:39.307Z,80.56
2022-12-27T16:25:38.103Z,80.61
2022-12-27T16:28:12.048Z,80.97
2022-12-27T16:30:49.786Z,81.22
2022-12-27T16:33:41.800Z,81.06
2022-12-27T16:36:29.079Z,81.05
2022-12-27T16:39:30.712Z,81.19
2022-12-27T16:42:11.004Z,81.45
2022-12-27T16:44:56.043Z,81.76
2022-12-27T16:48:07.553Z,82.49
2022-12-27T16:51:14.123Z,82.63
2022-12-27T16:54:08.611Z,82.65
2022-12-27T16:56:41.903Z,83.03
2022-12-27T16:59:56.963Z,83.00
2022-12-27T17:02:42.121Z,82.94
2022-12-27T17:05:44.797Z,82.50
2022-12-27T17:08:24.705Z,82.41
2022-12-27T17:11:27.927Z,82.79
2022-12-27T17:14:03.642Z,82.67
2022-12-27T17:16:44.392Z,82.92
2022-12-27T17:19:23.708Z,83.24
2022-12-27T17:22:00.871Z,83.36
2022-12-27T17:24:32.247Z,83.07
2022-12-27T17:27:19.655Z,83.15
2022-12-27T17:30:21.070Z,82.83
2022-12-27T17:33:22.470Z,82.69
2022-12-27T17:36:16.565Z,82.94
2022-12-27T17:39:04.960Z,82.72
2022-12-27T17:42:00.782Z,82.26
2022-12-27T17:44:52.173Z,81.95
2022-12-27T17:48:02.948Z,81.63
2022-12-27T17:50:38.537Z,81.39
2022-12-27T17:53:39.673Z,81.56
2022-12-27T17:56:40.436Z,81.01
2022-12-27T17:59:29.196Z,81.43
2022-12-27T18:02:10.020Z,81.49
2022-12-27T18:04:57.734Z,81.32
2022-12-27T18:07:42.200Z,81.23
2022-12-27T18:10:27.765Z,80.80
2022-12-27T18:13:04.556Z,80.90
2022-12-27T18:15:42.620Z,80.81
2022-12-27T18:18:32.503Z,80.18
2022-12-27T18:21:09.522Z,80.09
2022-12-27T18:23:46.950Z,80.64
2022-12-27T18:26:27.031Z,80.84
2022-12-27T18:29:02.263Z,80.99
2022-12-27T18:31:56.976Z,80.75
2022-12-27T18:34:40.791Z,80.33
2022-12-27T18:37:17.291Z,80.39
2022-12-27T18:39:59.565Z,80.19
2022-12-27T18:42:38.688Z,79.95
2022-12-27T18:45:27.593Z,80.27
2022-12-27T18:48:14.997Z,80.38
2022-12-27T18:51:02.477Z,80.22
2022-12-27T18:53:48.166Z,81.01
2022-12-27T18:56:36.617Z,81.12
2022-12-27T18:59:22.230Z,81.47
2022-12-27T19:01:57.454Z,82.28
2022-12-27T19:04:32.992Z,82.28
2022-12-27T19:07:22.452Z,82.78
2022-12-27T19:10:02.017Z,82.86
2022-12-27T19:12:40.788Z,82.75
2022-12-27T19:15:24.357Z,83.00
2022-12-27T19:18:01.703Z,83.66
2022-12-27T19:20:43.239Z,84.34
2022-12-27T19:23:39.129Z,85.11
2022-12-27T19:26:33.587Z,85.33
2022-12-27T19:29:19.362Z,85.93
2022-12-27T19:32:00.116Z,85.50
2022-12-27T19:34:47.806Z,85.74
2022-12-27T19:37:23.428Z,85.75
2022-12-27T19:39:59.306Z,86.28
2022-12-27T19:42:37.671Z,86.23
2022-12-27T19:45:28.411Z,86.31
2022-12-27T19:48:04.268Z,86.77
2022-12-27T19:50:42.514Z,87.43
2022-12-27T19:53:22.585Z,87.37
2022-12-27T19:55:55.717Z,86.97
2022-12-27T19:58:32.755Z,86.62
2022-12-27T20:01:09.544Z,86.88
2022-12-27T20:03:43.048Z,87.09
2022-12-27T20:06:20.786Z,87.23
2022-12-27T20:09:03.455Z,86.75
2022-12-27T20:11:36.885Z,86.07
2022-12-27T20:14:07.301Z,85.89
2022-12-27T20:16:43.785Z,85.32
2022-12-27T20:19:16.565Z,85.06
2022-12-27T20:21:52.352Z,85.01
2022-12-27T20:24:26.229Z,85.12
2022-12-27T20:27:01.761Z,84.74
2022-12-27T20:29:32.440Z,84.56
2022-12-27T20:32:03.212Z,84.68
2022-12-27T20:34:36.486Z,84.76
2022-12-27T20:37:07.333Z,83.89
2022-12-27T20:39:37.849Z,83.65
2022-12-27T20:42:14.715Z,82.98
2022-12-27T20:44:47.463Z,83.24
2022-12-27T20:47:22.486Z,83.18
2022-12-27T20:49:52.961Z,83.13
2022-12-27T20:52:31.020Z,83.54
2022-12-27T20:55:04.571Z,83.91
2022-12-27T20:57:41.077Z,84.77
2022-12-27T21:00:21.622Z,85.29
2022-12-27T21:02:54.465Z,84.67
2022-12-27T21:05:26.627Z,83.81
2022-12-27T21:08:03.225Z,83.47
2022-12-27T21:10:33.813Z,82.70
2022-12-27T21:13:14.167Z,82.15
2022-12-27T21:15:53.704Z,82.55
2022-12-27T21:18:31.079Z,81.71
2022-12-27T21:21:13.998Z,81.77
2022-12-27T21:23:54.058Z,81.65
2022-12-27T21:26:29.445Z,81.12
2022-12-27T21:29:12.569Z,81.21
2022-12-27T21:31:42.896Z,80.98
2022-12-27T21:34:13.339Z,81.40
2022-12-27T21:36:43.863Z,81.87
2022-12-27T21:39:14.595Z,81.94
2022-12-27T21:41:45.112Z,81.92
2022-12-27T21:44:18.055Z,81.68
2022-12-27T21:46:48.743Z,81.49
2022-12-27T21:49:20.091Z,81.20
2022-12-27T21:51:50.464Z,81.49
2022-12-27T21:54:21.316Z,81.77
2022-12-27T21:56:51.719Z,81.93
2022-12-27T21:59:24.584Z,82.43
2022-12-27T22:01:55.027Z,83.29
2022-12-27T22:04:25.415Z,83.35
2022-12-27T22:06:55.655Z,84.21
2022-12-27T22:09:25.955Z,84.01
2022-12-27T22:11:56.306Z,83.78
2022-12-27T22:14:33.256Z,83.74
2022-12-27T22:17:07.026Z,84.20
2022-12-27T22:19:37.390Z,84.08
2022-12-27T22:22:07.765Z,83.88
2022-12-27T22:24:38.062Z,83.94
2022-12-27T22:27:08.346Z,84.85
2022-12-27T22:29:41.383Z,85.81
2022-12-27T22:32:11.735Z,85.39
2022-12-27T22:34:42.026Z,86.13
2022-12-27T22:37:12.392Z,86.29
2022-12-27T22:39:42.817Z,86.41
2022-12-27T22:42:13.169Z,86.69
2022-12-27T22:44:46.116Z,86.68
2022-12-27T22:47:26.317Z,86.73
2022-12-27T22:49:57.635Z,86.63
2022-12-27T22:52:28.000Z,86.25
2022-12-27T22:55:05.842Z,86.17
2022-12-27T22:57:37.419Z,85.94
2022-12-27T23:00:16.044Z,85.48
2022-12-27T23:02:46.383Z,84.81
2022-12-27T23:05:16.892Z,84.70
2022-12-27T23:08:05.900Z,84.30
2022-12-27T23:10:37.827Z,83.91
2022-12-27T23:13:08.227Z,83.70
2022-12-27T23:15:41.173Z,83.34
2022-12-27T23:18:11.566Z,83.70
2022-12-27T23:21:19.179Z,83.78
2022-12-27T23:23:32.330Z,83.63
2022-12-27T23:26:08.681Z,83.31
2022-12-27T23:28:39.759Z,83.22
2022-12-27T23:31:15.140Z,82.79
2022-12-27T23:33:47.154Z,82.95
2022-12-27T23:36:17.863Z,83.27
2022-12-27T23:38:48.655Z,83.67
2022-12-27T23:41:21.921Z,84.21
2022-12-27T23:43:55.959Z,84.38
2022-12-27T23:46:32.633Z,83.90
2022-12-27T23:49:05.260Z,84.08
2022-12-27T23:51:36.001Z,83.75
2022-12-27T23:54:06.587Z,83.80
2022-12-27T23:56:36.999Z,83.30
2022-12-27T23:59:13.905Z,83.56
